Time;durP1;ratioP1;P1;durP2;ratioP2;P2;SDS_P1;SDS_P2;PMS_P1;PMS_P2;Temp;Humidity;BMP_temperature;BMP_pressure;BME280_temperature;BME280_humidity;BME280_pressure;Samples;Min_cycle;Max_cycle;Signal;HPM_P1;HPM_P2
2021/10/04 00:00:31;;;;;;;;;;;;;;;21.74;51.42;101002.03;2075259;28;1246;-56
2021/10/04 00:01:31;;;;;;;;;;;;;;;21.71;53.42;101002.13;2075336;28;776;-56
2021/10/04 00:02:31;;;;;;;;;;;;;;;21.69;53.00;101006.69;2065869;28;954;-56
2021/10/04 00:03:32;;;;;;;;;;;;;;;21.61;53.04;101009.63;2066597;28;725;-56
2021/10/04 00:04:32;;;;;;;;;;;;;;;21.74;52.68;101004.72;2075309;28;866;-56
2021/10/04 00:05:33;;;;;;;;;;;;;;;21.67;52.76;101004.97;2075283;28;890;-56
2021/10/04 00:06:33;;;;;;;;;;;;;;;21.75;52.32;101002.91;2075346;28;815;-56
2021/10/04 00:07:33;;;;;;;;;;;;;;;21.66;53.17;101006.81;2075105;28;775;-56
2021/10/04 00:08:33;;;;;;;;;;;;;;;21.79;52.05;101007.25;2075277;28;862;-56
2021/10/04 00:09:33;;;;;;;;;;;;;;;21.68;54.21;101007.63;2075290;28;839;-56
2021/10/04 00:10:34;;;;;;;;;;;;;;;21.82;50.97;101008.94;2075161;28;924;-56
2021/10/04 00:11:34;;;;;;;;;;;;;;;21.74;53.56;101004.72;2075270;28;1169;-56
2021/10/04 00:12:34;;;;;;;;;;;;;;;21.67;52.95;101007.69;2075174;28;1265;-56
2021/10/04 00:13:34;;;;;;;;;;;;;;;21.67;52.81;101002.28;2075050;28;1906;-56
2021/10/04 00:14:34;;;;;;;;;;;;;;;21.71;52.44;100998.53;2075283;28;1013;-56
2021/10/04 00:15:35;;;;;;;;;;;;;;;21.64;52.31;101000.59;2074993;28;854;-56
2021/10/04 00:16:36;;;;;;;;;;;;;;;21.60;53.84;101001.59;2075248;28;930;-56
2021/10/04 00:17:36;;;;;;;;;;;;;;;21.72;53.16;100994.91;2075173;28;1017;-56
2021/10/04 00:18:36;;;;;;;;;;;;;;;21.46;54.79;101005.66;2075287;28;835;-56
2021/10/04 00:19:36;;;;;;;;;;;;;;;21.70;53.10;101004.88;2075146;28;879;-56
2021/10/04 00:20:37;;;;;;;;;;;;;;;21.73;52.03;101007.47;2075211;28;1012;-56
2021/10/04 00:21:37;;;;;;;;;;;;;;;21.60;53.27;101007.84;2075197;28;803;-56
2021/10/04 00:22:37;;;;;;;;;;;;;;;21.63;53.10;101012.31;2075186;28;1013;-56
2021/10/04 00:23:37;;;;;;;;;;;;;;;21.77;52.20;101006.41;2075020;28;790;-56
2021/10/04 00:24:38;;;;;;;;;;;;;;;21.77;53.21;101012.72;2075172;28;970;-56
2021/10/04 00:25:38;;;;;;;;;;;;;;;21.79;52.45;101007.25;2075145;28;839;-56
2021/10/04 00:26:38;;;;;;;;;;;;;;;21.69;52.31;101020.19;2075097;28;858;-56
2021/10/04 00:27:39;;;;;;;;;;;;;;;21.84;51.58;101016.06;2075114;28;1017;-56
2021/10/04 00:28:39;;;;;;;;;;;;;;;21.74;53.04;101014.63;2075047;28;859;-56
2021/10/04 00:29:39;;;;;;;;;;;;;;;21.64;52.82;101005.09;2075139;28;985;-55
2021/10/04 00:30:40;;;;;;;;;;;;;;;21.74;51.77;101012.81;2075124;28;685;-57
2021/10/04 00:31:40;;;;;;;;;;;;;;;21.80;52.88;101008.09;2074979;28;791;-56
2021/10/04 00:32:42;;;;;;;;;;;;;;;21.79;52.05;101009.94;2075137;28;771;-56
2021/10/04 00:33:42;;;;;;;;;;;;;;;21.75;53.10;101006.47;2075030;28;1882;-56
2021/10/04 00:34:42;;;;;;;;;;;;;;;21.73;53.33;101007.47;2075138;28;969;-56
2021/10/04 00:35:42;;;;;;;;;;;;;;;21.62;54.11;101010.53;2075121;28;1029;-56
2021/10/04 00:36:43;;;;;;;;;;;;;;;21.69;52.17;101009.41;2079124;28;1484;-56
2021/10/04 00:37:43;;;;;;;;;;;;;;;21.70;53.02;101012.97;2083004;28;906;-56
2021/10/04 00:38:43;;;;;;;;;;;;;;;21.53;53.53;101010.81;2074543;28;1045;-56
2021/10/04 00:39:43;;;;;;;;;;;;;;;21.65;52.75;101012.25;2074378;28;812;-56
2021/10/04 00:40:43;;;;;;;;;;;;;;;21.65;52.21;101010.44;2083189;28;766;-55
2021/10/04 00:41:44;;;;;;;;;;;;;;;21.69;51.85;101013.88;2083203;28;962;-56
2021/10/04 00:42:44;;;;;;;;;;;;;;;21.61;53.01;101016.84;2083246;28;993;-56
2021/10/04 00:43:44;;;;;;;;;;;;;;;21.77;52.47;101004.63;2083240;28;903;-56
2021/10/04 00:44:44;;;;;;;;;;;;;;;21.80;50.92;101014.41;2083202;28;854;-56
2021/10/04 00:45:45;;;;;;;;;;;;;;;21.79;51.63;101007.25;2082991;28;1016;-56
2021/10/04 00:46:45;;;;;;;;;;;;;;;21.80;52.27;101014.41;2083243;28;981;-55
2021/10/04 00:47:45;;;;;;;;;;;;;;;21.84;51.69;101013.34;2083100;28;767;-56
2021/10/04 00:48:45;;;;;;;;;;;;;;;21.79;52.08;101015.31;2083219;28;1021;-56
2021/10/04 00:49:46;;;;;;;;;;;;;;;21.68;53.07;101017.53;2083199;28;820;-56
2021/10/04 00:50:46;;;;;;;;;;;;;;;21.56;53.64;101016.13;2083010;28;1044;-56
2021/10/04 00:51:47;;;;;;;;;;;;;;;21.77;51.53;101018.09;2083198;28;840;-56
2021/10/04 00:52:47;;;;;;;;;;;;;;;21.79;51.55;101007.25;2083243;28;973;-56
2021/10/04 00:53:49;;;;;;;;;;;;;;;21.60;53.17;101007.84;2083162;28;1953;-56
2021/10/04 00:54:49;;;;;;;;;;;;;;;21.59;53.70;101010.63;2083152;28;981;-56
2021/10/04 00:55:50;;;;;;;;;;;;;;;21.70;52.32;101013.84;2083130;28;977;-56
2021/10/04 00:56:50;;;;;;;;;;;;;;;21.62;52.50;101021.31;2083152;28;779;-56
2021/10/04 00:57:50;;;;;;;;;;;;;;;21.69;52.56;101028.28;2083221;28;1032;-56
2021/10/04 00:58:51;;;;;;;;;;;;;;;21.70;51.75;101011.16;2083052;28;980;-56
2021/10/04 00:59:51;;;;;;;;;;;;;;;21.76;51.61;101008.25;2083124;28;810;-56
2021/10/04 01:00:51;;;;;;;;;;;;;;;21.79;51.38;101017.13;2083145;28;1052;-56
2021/10/04 01:01:51;;;;;;;;;;;;;;;21.62;52.55;101013.25;2082820;28;768;-56
2021/10/04 01:02:52;;;;;;;;;;;;;;;21.66;51.97;101005.91;2081302;28;1366;-56
2021/10/04 01:03:52;;;;;;;;;;;;;;;21.62;52.82;101014.09;2075092;28;1051;-56
2021/10/04 01:04:52;;;;;;;;;;;;;;;21.73;52.24;101016.44;2074584;28;993;-56
2021/10/04 01:05:52;;;;;;;;;;;;;;;21.75;52.20;101014.56;2074984;28;766;-56
2021/10/04 01:06:53;;;;;;;;;;;;;;;21.60;52.84;101012.38;2074960;28;977;-56
2021/10/04 01:07:53;;;;;;;;;;;;;;;21.68;52.94;101004.94;2075048;28;858;-56
2021/10/04 01:08:53;;;;;;;;;;;;;;;21.76;51.93;101002.84;2074913;28;838;-56
2021/10/04 01:09:54;;;;;;;;;;;;;;;21.65;53.27;101007.75;2074817;28;772;-56
2021/10/04 01:10:54;;;;;;;;;;;;;;;21.66;52.74;101006.81;2074851;28;1169;-56
2021/10/04 01:11:55;;;;;;;;;;;;;;;21.74;51.33;101014.63;2074809;28;1339;-56
2021/10/04 01:12:55;;;;;;;;;;;;;;;21.76;53.21;101008.25;2066127;28;1299;-56
2021/10/04 01:13:55;;;;;;;;;;;;;;;21.64;53.09;101018.56;2066246;28;1914;-56
2021/10/04 01:14:55;;;;;;;;;;;;;;;21.61;52.72;101008.75;2076118;28;855;-56
2021/10/04 01:15:56;;;;;;;;;;;;;;;21.58;52.89;101015.13;2076465;28;1024;-56
2021/10/04 01:16:56;;;;;;;;;;;;;;;21.66;52.98;101016.69;2076540;28;819;-56
2021/10/04 01:17:56;;;;;;;;;;;;;;;21.61;52.31;101015.00;2076602;28;985;-56
2021/10/04 01:18:56;;;;;;;;;;;;;;;21.74;52.09;101007.41;2076483;28;771;-56
2021/10/04 01:19:57;;;;;;;;;;;;;;;21.66;53.40;101011.31;2076625;28;768;-56
2021/10/04 01:20:57;;;;;;;;;;;;;;;21.61;52.83;101003.34;2076336;28;791;-56
2021/10/04 01:21:57;;;;;;;;;;;;;;;21.66;52.23;101005.91;2076569;28;944;-56
2021/10/04 01:22:57;;;;;;;;;;;;;;;21.74;51.41;101007.41;2067796;28;1396;-56
2021/10/04 01:23:57;;;;;;;;;;;;;;;21.75;51.90;101011.88;2067878;28;780;-56
2021/10/04 01:24:57;;;;;;;;;;;;;;;21.62;52.11;101010.53;2076411;28;981;-56
2021/10/04 01:25:58;;;;;;;;;;;;;;;21.77;52.13;101014.50;2076357;28;977;-56
2021/10/04 01:26:58;;;;;;;;;;;;;;;21.73;51.70;101005.66;2076544;28;763;-56
2021/10/04 01:27:59;;;;;;;;;;;;;;;21.75;52.51;101003.78;2076531;28;855;-56
2021/10/04 01:29:00;;;;;;;;;;;;;;;21.53;53.14;101000.91;2076309;28;1040;-56
2021/10/04 01:30:00;;;;;;;;;;;;;;;21.67;53.09;100999.59;2076556;28;808;-56
2021/10/04 01:31:00;;;;;;;;;;;;;;;21.70;53.34;101008.47;2076486;28;1330;-56
2021/10/04 01:32:00;;;;;;;;;;;;;;;21.74;52.36;100999.34;2076206;28;800;-56
2021/10/04 01:33:01;;;;;;;;;;;;;;;21.77;52.07;100987.53;2076357;28;1886;-56
2021/10/04 01:34:04;;;;;;;;;;;;;;;21.81;50.62;100999.97;2076522;28;783;-56
2021/10/04 01:35:04;;;;;;;;;;;;;;;21.83;51.70;100997.22;2076471;28;831;-56
2021/10/04 01:36:04;;;;;;;;;;;;;;;21.67;52.80;100999.59;2076496;28;977;-56
2021/10/04 01:37:04;;;;;;;;;;;;;;;21.68;52.99;101002.25;2076188;28;1429;-56
2021/10/04 01:38:05;;;;;;;;;;;;;;;21.65;52.13;101005.03;2076263;28;922;-56
2021/10/04 01:39:05;;;;;;;;;;;;;;;21.66;51.62;101006.81;2076438;28;1112;-56
2021/10/04 01:40:07;;;;;;;;;;;;;;;21.77;51.48;101001.03;2076301;28;1040;-56
2021/10/04 01:41:07;;;;;;;;;;;;;;;21.70;53.07;101008.47;2076112;28;816;-56
2021/10/04 01:42:07;;;;;;;;;;;;;;;21.75;51.70;101003.78;2076378;28;1053;-56
2021/10/04 01:43:07;;;;;;;;;;;;;;;21.74;52.50;101004.72;2076196;28;1044;-55
2021/10/04 01:44:07;;;;;;;;;;;;;;;21.77;51.79;101010.00;2076188;28;756;-56
2021/10/04 01:45:12;;;;;;;;;;;;;;;21.69;53.38;101000.41;2076301;28;966;-56
2021/10/04 01:46:12;;;;;;;;;;;;;;;21.73;51.89;101000.28;2076380;28;1111;-56
2021/10/04 01:47:13;;;;;;;;;;;;;;;21.64;52.98;100997.91;2076274;28;926;-56
2021/10/04 01:48:13;;;;;;;;;;;;;;;21.75;51.75;100992.09;2076371;28;958;-56
2021/10/04 01:49:13;;;;;;;;;;;;;;;21.66;52.66;100995.13;2075929;28;843;-56
2021/10/04 01:50:15;;;;;;;;;;;;;;;21.67;52.64;100994.19;2076329;28;1045;-56
2021/10/04 01:51:15;;;;;;;;;;;;;;;21.65;52.04;100996.97;2076328;28;958;-55
2021/10/04 01:52:15;;;;;;;;;;;;;;;21.74;51.84;100988.53;2076270;28;867;-56
2021/10/04 01:53:16;;;;;;;;;;;;;;;21.77;52.58;100983.03;2076152;28;1890;-56
2021/10/04 01:54:16;;;;;;;;;;;;;;;21.74;52.64;100990.34;2076274;28;874;-55
2021/10/04 01:55:16;;;;;;;;;;;;;;;21.77;52.81;100988.44;2076261;28;868;-55
2021/10/04 01:56:17;;;;;;;;;;;;;;;21.69;52.92;100993.22;2076319;28;970;-55
2021/10/04 01:57:17;;;;;;;;;;;;;;;21.60;51.90;100996.19;2076200;28;1052;-56
2021/10/04 01:58:17;;;;;;;;;;;;;;;21.74;52.24;100988.53;2076271;28;970;-55
2021/10/04 01:59:17;;;;;;;;;;;;;;;21.77;52.19;100993.81;2076233;28;903;-56
2021/10/04 02:00:19;;;;;;;;;;;;;;;21.81;52.06;100996.38;2076270;28;1051;-55
2021/10/04 02:01:19;;;;;;;;;;;;;;;21.75;51.84;100990.31;2076324;28;1113;-56
2021/10/04 02:02:19;;;;;;;;;;;;;;;21.76;51.29;100983.97;2075965;28;844;-56
2021/10/04 02:03:19;;;;;;;;;;;;;;;21.73;53.86;100992.19;2076229;28;878;-56
2021/10/04 02:04:20;;;;;;;;;;;;;;;21.60;53.30;100991.69;2067487;28;946;-56
2021/10/04 02:05:20;;;;;;;;;;;;;;;21.72;51.99;101003.91;2067501;28;946;-56
2021/10/04 02:06:21;;;;;;;;;;;;;;;21.72;51.50;100995.81;2076206;28;803;-56
2021/10/04 02:07:21;;;;;;;;;;;;;;;21.70;52.91;101000.38;2076203;28;1033;-55
2021/10/04 02:08:21;;;;;;;;;;;;;;;21.77;51.96;100998.31;2076060;28;1028;-56
2021/10/04 02:09:21;;;;;;;;;;;;;;;21.79;52.41;101001.84;2076260;28;1006;-55
2021/10/04 02:10:24;;;;;;;;;;;;;;;21.85;50.88;100998.03;2076215;28;1161;-55
2021/10/04 02:11:24;;;;;;;;;;;;;;;21.85;52.37;101000.72;2076227;28;848;-56
2021/10/04 02:12:24;;;;;;;;;;;;;;;21.92;50.80;101013.06;2076037;28;1222;-56
2021/10/04 02:13:24;;;;;;;;;;;;;;;21.80;52.16;101019.78;2075901;28;1914;-55
2021/10/04 02:14:24;;;;;;;;;;;;;;;21.79;51.69;101011.75;2076005;28;1017;-56
2021/10/04 02:15:25;;;;;;;;;;;;;;;21.80;52.64;101016.19;2076096;28;823;-56
2021/10/04 02:16:25;;;;;;;;;;;;;;;21.82;52.07;101020.63;2076138;28;962;-57
2021/10/04 02:17:26;;;;;;;;;;;;;;;21.85;50.95;101020.50;2076075;28;1020;-57
2021/10/04 02:18:26;;;;;;;;;;;;;;;21.73;52.18;101029.03;2076145;28;807;-57
2021/10/04 02:19:26;;;;;;;;;;;;;;;21.80;51.86;101029.69;2076098;28;1041;-57
2021/10/04 02:20:27;;;;;;;;;;;;;;;21.80;52.21;101025.19;2076110;28;974;-57
2021/10/04 02:21:27;;;;;;;;;;;;;;;21.77;51.69;101017.19;2075665;28;827;-56
2021/10/04 02:22:28;;;;;;;;;;;;;;;21.89;51.38;101024.84;2076109;28;1226;-57
2021/10/04 02:23:28;;;;;;;;;;;;;;;21.75;52.79;101019.06;2076015;28;1037;-57
2021/10/04 02:24:28;;;;;;;;;;;;;;;21.75;52.05;101021.78;2076081;28;890;-57
2021/10/04 02:25:28;;;;;;;;;;;;;;;21.63;53.12;101020.41;2075751;28;894;-56
2021/10/04 02:26:29;;;;;;;;;;;;;;;21.61;52.50;101019.53;2076016;28;974;-56
2021/10/04 02:27:29;;;;;;;;;;;;;;;21.77;52.06;101012.72;2075718;28;647;-56
2021/10/04 02:28:29;;;;;;;;;;;;;;;21.68;52.49;101010.34;2076075;28;847;-56
2021/10/04 02:29:29;;;;;;;;;;;;;;;21.55;53.29;101022.44;2075932;28;966;-56
2021/10/04 02:30:29;;;;;;;;;;;;;;;21.70;51.90;101018.34;2076140;28;772;-56
2021/10/04 02:31:30;;;;;;;;;;;;;;;21.80;52.61;101019.78;2075966;28;958;-56
2021/10/04 02:32:30;;;;;;;;;;;;;;;21.74;52.23;101023.59;2075939;28;838;-56
2021/10/04 02:33:30;;;;;;;;;;;;;;;21.70;52.48;101016.56;2075938;28;1894;-56
2021/10/04 02:34:30;;;;;;;;;;;;;;;21.62;53.53;101024.03;2075963;28;1001;-56
2021/10/04 02:35:30;;;;;;;;;;;;;;;21.72;51.48;101014.69;2075832;28;764;-56
2021/10/04 02:36:30;;;;;;;;;;;;;;;21.71;52.41;101025.50;2078425;28;1194;-56
2021/10/04 02:37:31;;;;;;;;;;;;;;;21.77;51.29;101027.97;2084096;28;970;-56
2021/10/04 02:38:31;;;;;;;;;;;;;;;21.80;51.41;101014.41;2083817;28;831;-56
2021/10/04 02:39:31;;;;;;;;;;;;;;;21.71;52.00;101023.72;2084130;28;898;-56
2021/10/04 02:40:31;;;;;;;;;;;;;;;21.57;53.46;101023.28;2084135;28;1029;-56
2021/10/04 02:41:31;;;;;;;;;;;;;;;21.64;52.30;101015.88;2083718;28;835;-56
2021/10/04 02:42:32;;;;;;;;;;;;;;;21.51;54.29;101015.38;2084149;28;859;-56
2021/10/04 02:43:32;;;;;;;;;;;;;;;21.65;52.73;101017.63;2084116;28;863;-56
2021/10/04 02:44:32;;;;;;;;;;;;;;;21.65;53.36;101017.63;2084098;28;989;-56
2021/10/04 02:45:32;;;;;;;;;;;;;;;21.69;52.71;101012.09;2084072;28;883;-56
2021/10/04 02:46:32;;;;;;;;;;;;;;;21.71;52.11;101015.63;2084078;28;1013;-56
2021/10/04 02:47:33;;;;;;;;;;;;;;;21.74;52.59;101023.59;2084112;28;1027;-55
2021/10/04 02:48:33;;;;;;;;;;;;;;;21.75;52.38;101024.47;2084094;28;980;-56
2021/10/04 02:49:33;;;;;;;;;;;;;;;21.66;52.44;101031.06;2084074;28;1020;-55
2021/10/04 02:50:33;;;;;;;;;;;;;;;21.62;52.37;101026.72;2084092;28;1134;-56
2021/10/04 02:51:33;;;;;;;;;;;;;;;21.68;52.25;100993.25;2083906;28;855;-55
2021/10/04 02:52:34;;;;;;;;;;;;;;;21.65;51.69;100986.19;2084090;28;961;-56
2021/10/04 02:53:34;;;;;;;;;;;;;;;21.69;52.24;100995.91;2083975;28;1886;-55
2021/10/04 02:54:34;;;;;;;;;;;;;;;21.67;52.80;100995.09;2084047;28;850;-56
2021/10/04 02:55:34;;;;;;;;;;;;;;;21.62;52.14;100995.25;2084064;28;917;-55
2021/10/04 02:56:34;;;;;;;;;;;;;;;21.68;52.20;100987.88;2083998;28;851;-56
2021/10/04 02:57:35;;;;;;;;;;;;;;;21.66;52.51;100979.84;2084012;28;838;-55
2021/10/04 02:58:35;;;;;;;;;;;;;;;21.59;53.43;101008.78;2083931;28;929;-56
2021/10/04 02:59:35;;;;;;;;;;;;;;;21.52;52.84;101057.59;2083870;28;1045;-56
2021/10/04 03:00:36;;;;;;;;;;;;;;;21.68;51.80;101042.69;2083977;28;775;-56
2021/10/04 03:01:36;;;;;;;;;;;;;;;21.67;52.21;101054.41;2083823;28;850;-55
2021/10/04 03:02:37;;;;;;;;;;;;;;;21.60;51.94;101044.72;2083784;28;965;-55
2021/10/04 03:03:37;;;;;;;;;;;;;;;21.63;52.14;101039.25;2083985;28;859;-56
2021/10/04 03:04:37;;;;;;;;;;;;;;;21.61;51.76;101041.09;2084013;28;989;-55
2021/10/04 03:05:37;;;;;;;;;;;;;;;21.66;52.83;101038.25;2083916;28;838;-55
2021/10/04 03:06:37;;;;;;;;;;;;;;;21.55;52.38;101042.16;2083983;28;762;-55
2021/10/04 03:07:38;;;;;;;;;;;;;;;21.66;53.00;101032.88;2083570;28;851;-55
2021/10/04 03:08:38;;;;;;;;;;;;;;;21.67;53.37;101024.75;2083972;28;1001;-55
2021/10/04 03:09:38;;;;;;;;;;;;;;;21.67;52.25;101030.13;2083884;28;973;-55
2021/10/04 03:10:38;;;;;;;;;;;;;;;21.53;53.38;101032.38;2083792;28;1200;-55
2021/10/04 03:11:39;;;;;;;;;;;;;;;21.64;53.20;101040.13;2083875;28;961;-55
2021/10/04 03:12:39;;;;;;;;;;;;;;;21.68;52.62;101048.06;2083524;28;1340;-55
2021/10/04 03:13:39;;;;;;;;;;;;;;;21.74;51.21;101047.88;2083803;28;1977;-56
2021/10/04 03:14:39;;;;;;;;;;;;;;;21.70;51.83;101046.22;2083887;28;925;-56
2021/10/04 03:15:39;;;;;;;;;;;;;;;21.70;52.85;101057.00;2083762;28;787;-56
2021/10/04 03:16:39;;;;;;;;;;;;;;;21.67;53.25;101058.91;2083894;28;902;-55
2021/10/04 03:17:40;;;;;;;;;;;;;;;21.58;52.44;101055.53;2083767;28;1013;-55
2021/10/04 03:18:40;;;;;;;;;;;;;;;21.66;51.92;101057.13;2083872;28;838;-55
2021/10/04 03:19:40;;;;;;;;;;;;;;;21.66;51.97;101054.44;2083793;28;855;-56
2021/10/04 03:20:40;;;;;;;;;;;;;;;21.70;53.07;101057.00;2083466;28;786;-56
2021/10/04 03:21:40;;;;;;;;;;;;;;;21.48;52.42;101048.72;2083808;28;918;-55
2021/10/04 03:22:41;;;;;;;;;;;;;;;21.69;51.51;101055.22;2083820;28;1029;-55
2021/10/04 03:23:41;;;;;;;;;;;;;;;21.69;51.76;101006.69;2083804;28;917;-55
2021/10/04 03:24:42;;;;;;;;;;;;;;;21.61;52.07;101017.69;2083803;28;917;-56
2021/10/04 03:25:42;;;;;;;;;;;;;;;21.63;52.30;101006.91;2083718;28;818;-55
2021/10/04 03:26:42;;;;;;;;;;;;;;;21.57;52.20;101007.97;2083700;28;985;-55
2021/10/04 03:27:43;;;;;;;;;;;;;;;21.57;53.16;101010.66;2083846;28;823;-56
2021/10/04 03:28:43;;;;;;;;;;;;;;;21.62;52.52;101013.25;2083592;28;835;-55
2021/10/04 03:29:43;;;;;;;;;;;;;;;21.68;52.41;101004.94;2083758;28;918;-55
2021/10/04 03:30:44;;;;;;;;;;;;;;;21.75;52.47;101010.97;2083791;28;1036;-56
2021/10/04 03:31:44;;;;;;;;;;;;;;;21.69;52.74;101004.00;2083610;28;1044;-55
2021/10/04 03:32:46;;;;;;;;;;;;;;;21.61;52.48;101009.63;2083689;28;890;-55
2021/10/04 03:33:46;;;;;;;;;;;;;;;21.48;54.33;101008.31;2083753;28;1886;-55
2021/10/04 03:34:47;;;;;;;;;;;;;;;21.61;52.45;101022.22;2083374;28;1040;-55
2021/10/04 03:35:47;;;;;;;;;;;;;;;21.71;52.56;101017.41;2083719;28;1028;-55
2021/10/04 03:36:48;;;;;;;;;;;;;;;21.51;53.69;101018.94;2078421;28;1482;-55
2021/10/04 03:37:48;;;;;;;;;;;;;;;21.59;52.28;101037.56;2075203;28;843;-55
2021/10/04 03:38:49;;;;;;;;;;;;;;;21.60;51.95;101032.13;2075527;28;966;-55
2021/10/04 03:39:49;;;;;;;;;;;;;;;21.55;54.07;101039.47;2075226;28;756;-55
2021/10/04 03:40:49;;;;;;;;;;;;;;;21.50;53.58;101040.56;2075507;28;772;-55
2021/10/04 03:41:49;;;;;;;;;;;;;;;21.56;53.17;101049.31;2075400;28;859;-56
2021/10/04 03:42:49;;;;;;;;;;;;;;;21.52;54.18;101044.09;2075247;28;957;-55
2021/10/04 03:43:50;;;;;;;;;;;;;;;21.55;53.47;101041.31;2075446;28;1280;-55
2021/10/04 03:44:50;;;;;;;;;;;;;;;21.57;53.26;101037.59;2075369;28;1001;-55
2021/10/04 03:45:50;;;;;;;;;;;;;;;21.46;53.12;101031.72;2075396;28;933;-55
2021/10/04 03:46:50;;;;;;;;;;;;;;;21.61;52.22;101041.97;2075391;28;973;-55
2021/10/04 03:47:52;;;;;;;;;;;;;;;21.58;52.62;101042.06;2075296;28;1461;-56
2021/10/04 03:48:52;;;;;;;;;;;;;;;21.49;53.01;101034.28;2075418;28;852;-55
2021/10/04 03:49:52;;;;;;;;;;;;;;;21.55;52.81;101036.78;2075375;28;1087;-55
2021/10/04 03:50:52;;;;;;;;;;;;;;;21.60;52.82;101034.81;2075021;28;772;-55
2021/10/04 03:51:53;;;;;;;;;;;;;;;21.55;53.01;101038.63;2075401;28;937;-55
2021/10/04 03:52:53;;;;;;;;;;;;;;;21.53;53.11;101043.16;2075401;28;807;-55
2021/10/04 03:53:53;;;;;;;;;;;;;;;21.63;52.60;101028.47;2075328;28;1882;-55
2021/10/04 03:54:54;;;;;;;;;;;;;;;21.68;52.47;101021.13;2075395;28;799;-55
2021/10/04 03:55:54;;;;;;;;;;;;;;;21.66;52.80;101025.69;2075321;28;863;-55
2021/10/04 03:56:54;;;;;;;;;;;;;;;21.50;54.02;101029.81;2075361;28;989;-55
2021/10/04 03:57:54;;;;;;;;;;;;;;;21.54;52.51;101029.63;2075420;28;1230;-55
2021/10/04 03:58:54;;;;;;;;;;;;;;;21.52;52.04;101025.25;2075354;28;826;-55
2021/10/04 03:59:54;;;;;;;;;;;;;;;21.66;51.82;101031.06;2075377;28;1013;-55
2021/10/04 04:00:55;;;;;;;;;;;;;;;21.41;54.19;101020.22;2075249;28;1029;-55
2021/10/04 04:01:55;;;;;;;;;;;;;;;21.28;54.11;101044.88;2075270;28;874;-55
2021/10/04 04:02:55;;;;;;;;;;;;;;;20.89;56.52;101047.94;2075399;28;792;-56
2021/10/04 04:03:55;;;;;;;;;;;;;;;21.35;57.32;101012.34;2075235;28;986;-56
2021/10/04 04:04:55;;;;;;;;;;;;;;;21.68;56.15;101021.13;2075364;28;866;-56
2021/10/04 04:05:55;;;;;;;;;;;;;;;22.00;55.44;101013.66;2075346;28;978;-55
2021/10/04 04:06:56;;;;;;;;;;;;;;;22.15;55.52;101014.03;2075047;28;993;-55
2021/10/04 04:07:56;;;;;;;;;;;;;;;22.31;55.01;101027.84;2075293;28;1096;-55
2021/10/04 04:08:56;;;;;;;;;;;;;;;22.36;55.13;101031.25;2075307;28;1487;-55
2021/10/04 04:09:56;;;;;;;;;;;;;;;22.47;55.48;101033.53;2074982;28;757;-55
2021/10/04 04:10:56;;;;;;;;;;;;;;;22.64;56.18;101047.28;2075245;28;970;-55
2021/10/04 04:11:57;;;;;;;;;;;;;;;22.72;53.81;101057.78;2075175;28;1230;-55
2021/10/04 04:12:57;;;;;;;;;;;;;;;22.79;54.98;101067.41;2075110;28;986;-55
2021/10/04 04:13:57;;;;;;;;;;;;;;;22.89;53.37;101069.75;2075286;28;1976;-55
2021/10/04 04:14:57;;;;;;;;;;;;;;;23.01;53.44;101071.06;2075250;28;1061;-55
2021/10/04 04:15:57;;;;;;;;;;;;;;;23.09;54.01;101077.03;2075234;28;965;-55
2021/10/04 04:16:57;;;;;;;;;;;;;;;23.15;52.43;101074.09;2075172;28;748;-55
2021/10/04 04:17:58;;;;;;;;;;;;;;;23.17;52.43;101064.09;2075255;28;843;-56
2021/10/04 04:18:58;;;;;;;;;;;;;;;23.27;52.77;101044.84;2075161;28;768;-55
2021/10/04 04:19:58;;;;;;;;;;;;;;;23.32;52.25;101045.53;2075211;28;1188;-55
2021/10/04 04:20:58;;;;;;;;;;;;;;;23.37;51.04;101038.97;2075139;28;819;-55
2021/10/04 04:21:58;;;;;;;;;;;;;;;23.45;51.85;101045.88;2075231;28;969;-56
2021/10/04 04:22:58;;;;;;;;;;;;;;;23.46;52.01;101058.47;2074848;28;1040;-55
2021/10/04 04:23:59;;;;;;;;;;;;;;;23.46;51.10;101056.66;2075118;28;903;-56
2021/10/04 04:24:59;;;;;;;;;;;;;;;23.49;50.44;101056.53;2075197;28;970;-56
2021/10/04 04:26:02;;;;;;;;;;;;;;;23.53;50.07;101051.84;2075182;28;978;-55
2021/10/04 04:27:04;;;;;;;;;;;;;;;23.52;50.34;101040.19;2075092;28;977;-55
2021/10/04 04:28:04;;;;;;;;;;;;;;;23.57;49.71;101047.19;2075211;28;862;-55
2021/10/04 04:29:04;;;;;;;;;;;;;;;23.59;48.13;101046.19;2074709;28;792;-56
2021/10/04 04:30:06;;;;;;;;;;;;;;;23.57;48.49;101039.06;2075162;28;839;-55
2021/10/04 04:31:06;;;;;;;;;;;;;;;23.59;48.15;101042.59;2075031;28;1112;-56
2021/10/04 04:32:08;;;;;;;;;;;;;;;23.61;48.13;101040.69;2075191;28;1108;-55
2021/10/04 04:33:08;;;;;;;;;;;;;;;23.59;48.24;101042.59;2074945;28;1965;-55
2021/10/04 04:34:08;;;;;;;;;;;;;;;23.56;46.82;101034.59;2074921;28;835;-55
2021/10/04 04:35:09;;;;;;;;;;;;;;;23.59;47.35;101037.19;2075014;28;1288;-55
2021/10/04 04:36:09;;;;;;;;;;;;;;;23.58;47.69;101041.72;2075133;28;779;-55
2021/10/04 04:37:09;;;;;;;;;;;;;;;23.54;47.77;101042.78;2074761;28;1313;-55
2021/10/04 04:38:09;;;;;;;;;;;;;;;23.54;47.54;101041.00;2075070;28;773;-55
2021/10/04 04:39:09;;;;;;;;;;;;;;;23.53;46.05;101044.63;2075135;28;901;-55
2021/10/04 04:40:11;;;;;;;;;;;;;;;23.55;47.50;101039.16;2075079;28;961;-55
2021/10/04 04:41:11;;;;;;;;;;;;;;;23.58;47.26;101039.03;2075119;28;1001;-55
2021/10/04 04:42:12;;;;;;;;;;;;;;;23.56;46.81;101048.13;2074932;28;1314;-55
2021/10/04 04:43:12;;;;;;;;;;;;;;;23.58;45.82;101059.75;2074939;28;795;-55
2021/10/04 04:44:12;;;;;;;;;;;;;;;23.58;46.00;101055.25;2075153;28;846;-55
2021/10/04 04:45:17;;;;;;;;;;;;;;;23.58;45.14;101049.84;2074967;28;990;-55
2021/10/04 04:46:17;;;;;;;;;;;;;;;23.61;44.09;101057.81;2075062;28;921;-56
2021/10/04 04:47:17;;;;;;;;;;;;;;;23.62;44.84;101069.50;2075079;28;877;-55
2021/10/04 04:48:17;;;;;;;;;;;;;;;23.67;44.96;101062.97;2075021;28;970;-55
2021/10/04 04:49:18;;;;;;;;;;;;;;;23.63;45.00;101055.03;2075055;28;787;-55
2021/10/04 04:50:19;;;;;;;;;;;;;;;23.68;44.68;101055.72;2074975;28;795;-55
2021/10/04 04:51:19;;;;;;;;;;;;;;;23.67;43.80;101051.25;2074832;28;838;-55
2021/10/04 04:52:19;;;;;;;;;;;;;;;23.71;43.99;101061.00;2074987;28;1022;-55
2021/10/04 04:53:19;;;;;;;;;;;;;;;23.73;44.62;101055.53;2074910;28;1971;-56
2021/10/04 04:54:20;;;;;;;;;;;;;;;23.69;45.22;101055.66;2075056;28;916;-56
2021/10/04 04:55:20;;;;;;;;;;;;;;;23.72;44.92;101053.78;2074946;28;799;-55
2021/10/04 04:56:20;;;;;;;;;;;;;;;23.73;43.36;101055.53;2075039;28;772;-55
2021/10/04 04:57:20;;;;;;;;;;;;;;;23.75;44.53;101040.13;2074908;28;835;-55
2021/10/04 04:58:21;;;;;;;;;;;;;;;23.75;43.93;101045.53;2075054;28;710;-55
2021/10/04 04:59:21;;;;;;;;;;;;;;;23.75;44.12;101049.09;2075043;28;783;-56
2021/10/04 05:00:22;;;;;;;;;;;;;;;23.78;44.83;101045.41;2075051;28;802;-55
2021/10/04 05:01:22;;;;;;;;;;;;;;;23.82;45.32;101036.22;2074934;28;777;-55
2021/10/04 05:02:22;;;;;;;;;;;;;;;23.83;44.02;101037.97;2075036;28;1028;-55
2021/10/04 05:03:22;;;;;;;;;;;;;;;23.79;45.27;101047.16;2074792;28;1617;-55
2021/10/04 05:04:23;;;;;;;;;;;;;;;23.81;45.02;101061.50;2074795;28;793;-55
2021/10/04 05:05:23;;;;;;;;;;;;;;;23.82;45.46;101061.41;2074978;28;811;-55
2021/10/04 05:06:23;;;;;;;;;;;;;;;23.81;43.98;101061.50;2075006;28;838;-55
2021/10/04 05:07:23;;;;;;;;;;;;;;;23.83;46.31;101068.59;2074988;28;989;-55
2021/10/04 05:08:24;;;;;;;;;;;;;;;23.82;44.31;101060.53;2075034;28;758;-55
2021/10/04 05:09:24;;;;;;;;;;;;;;;23.83;44.12;101049.66;2074623;28;910;-55
2021/10/04 05:10:24;;;;;;;;;;;;;;;23.84;44.61;101070.34;2075009;28;978;-55
2021/10/04 05:11:24;;;;;;;;;;;;;;;23.87;43.81;101068.44;2074800;28;1263;-55
2021/10/04 05:12:25;;;;;;;;;;;;;;;23.87;44.88;101068.44;2074903;28;1071;-56
2021/10/04 05:13:25;;;;;;;;;;;;;;;23.85;43.82;101068.50;2074881;28;1969;-55
2021/10/04 05:14:25;;;;;;;;;;;;;;;23.83;45.46;101065.88;2074942;28;803;-55
2021/10/04 05:15:26;;;;;;;;;;;;;;;23.83;43.85;101060.47;2074935;28;1040;-55
2021/10/04 05:16:26;;;;;;;;;;;;;;;23.89;45.08;101061.16;2074957;28;807;-55